createdAt,value
2018-03-14T00:00:00.806Z,90.90
2018-03-14T00:02:28.407Z,91.80
2018-03-14T00:04:55.955Z,91.40
2018-03-14T00:07:23.526Z,91.30
2018-03-14T00:09:51.078Z,91.40
2018-03-14T00:12:18.642Z,91.00
2018-03-14T00:14:46.164Z,91.70
2018-03-14T00:17:13.714Z,92.20
2018-03-14T00:19:41.270Z,91.80
2018-03-14T00:22:08.800Z,91.60
2018-03-14T00:24:36.374Z,91.20
2018-03-14T00:27:04.683Z,92.40
2018-03-14T00:29:32.250Z,92.40
2018-03-14T00:31:59.797Z,91.90
2018-03-14T00:34:27.366Z,91.50
2018-03-14T00:36:54.902Z,91.10
2018-03-14T00:39:22.600Z,91.20
2018-03-14T00:41:50.168Z,90.60
2018-03-14T00:44:17.702Z,90.80
2018-03-14T00:46:45.320Z,90.50
2018-03-14T00:49:13.618Z,91.40
2018-03-14T00:51:41.185Z,91.40
2018-03-14T00:54:08.979Z,92.20
2018-03-14T00:56:36.546Z,91.70
2018-03-14T00:59:04.085Z,91.50
2018-03-14T01:01:31.617Z,92.00
2018-03-14T01:03:59.190Z,92.10
2018-03-14T01:06:26.722Z,92.10
2018-03-14T01:08:54.287Z,92.20
2018-03-14T01:11:21.826Z,91.90
2018-03-14T01:13:50.179Z,92.20
2018-03-14T01:16:17.722Z,92.20
2018-03-14T01:18:45.284Z,91.10
2018-03-14T01:21:12.814Z,91.00
2018-03-14T01:23:40.341Z,90.80
2018-03-14T01:26:08.667Z,90.80
2018-03-14T01:28:37.950Z,90.80
2018-03-14T01:31:05.568Z,90.50
2018-03-14T01:33:33.122Z,89.90
2018-03-14T01:36:00.693Z,89.30
2018-03-14T01:38:28.230Z,89.40
2018-03-14T01:40:55.797Z,89.90
2018-03-14T01:43:23.351Z,90.60
2018-03-14T01:45:50.902Z,90.50
2018-03-14T01:48:18.461Z,91.10
2018-03-14T01:50:46.029Z,91.10
2018-03-14T01:53:25.518Z,90.60
2018-03-14T01:55:53.824Z,88.50
2018-03-14T01:58:21.438Z,88.50
2018-03-14T02:00:48.986Z,87.10
2018-03-14T02:03:16.566Z,87.50
2018-03-14T02:05:44.107Z,86.70
2018-03-14T02:08:12.415Z,87.40
2018-03-14T02:10:40.001Z,87.40
2018-03-14T02:13:08.688Z,87.20
2018-03-14T02:15:36.262Z,87.50
2018-03-14T02:18:03.806Z,87.60
2018-03-14T02:20:31.376Z,87.20
2018-03-14T02:22:58.908Z,86.80
2018-03-14T02:25:26.464Z,87.30
2018-03-14T02:27:53.997Z,87.90
2018-03-14T02:30:21.545Z,89.00
2018-03-14T02:32:49.882Z,90.40
2018-03-14T02:35:17.439Z,90.40
2018-03-14T02:37:46.959Z,90.40
2018-03-14T02:40:14.503Z,90.40
2018-03-14T02:42:42.055Z,90.30
2018-03-14T02:45:09.602Z,90.00
2018-03-14T02:47:37.155Z,90.40
2018-03-14T02:50:05.594Z,90.30
2018-03-14T02:52:33.890Z,90.30
2018-03-14T02:55:01.466Z,90.30
2018-03-14T02:57:30.892Z,90.50
2018-03-14T02:59:58.436Z,90.50
2018-03-14T03:02:25.970Z,90.80
2018-03-14T03:04:54.288Z,90.60
2018-03-14T03:07:21.830Z,90.60
2018-03-14T03:09:49.373Z,91.50
2018-03-14T03:12:17.670Z,91.90
2018-03-14T03:14:45.194Z,91.90
2018-03-14T03:17:12.746Z,91.70
2018-03-14T03:19:40.258Z,92.10
2018-03-14T03:22:07.805Z,92.10
2018-03-14T03:24:35.338Z,92.20
2018-03-14T03:27:02.889Z,92.00
2018-03-14T03:29:30.409Z,92.50
2018-03-14T03:31:57.954Z,92.50
2018-03-14T03:34:25.485Z,92.40
2018-03-14T03:36:53.006Z,92.20
2018-03-14T03:39:20.556Z,91.70
2018-03-14T03:41:48.082Z,91.90
2018-03-14T03:44:15.638Z,91.70
2018-03-14T03:46:43.157Z,91.90
2018-03-14T03:49:10.711Z,91.90
2018-03-14T03:51:38.233Z,91.80
2018-03-14T03:54:05.786Z,91.80
2018-03-14T03:56:33.305Z,91.90
2018-03-14T03:59:01.647Z,92.60
2018-03-14T04:01:29.194Z,92.60
2018-03-14T04:03:56.714Z,93.10
2018-03-14T04:06:25.299Z,92.80
2018-03-14T04:08:52.814Z,92.70
2018-03-14T04:11:20.365Z,92.50
2018-03-14T04:13:47.891Z,92.30
2018-03-14T04:16:15.474Z,92.60
2018-03-14T04:18:42.994Z,92.50
2018-03-14T04:21:10.505Z,92.70
2018-03-14T04:23:38.055Z,92.50
2018-03-14T04:26:05.566Z,92.50
2018-03-14T04:28:33.127Z,92.50
2018-03-14T04:31:01.612Z,92.40
2018-03-14T04:33:29.163Z,92.40
2018-03-14T04:35:56.686Z,92.20
2018-03-14T04:38:24.250Z,92.50
2018-03-14T04:40:51.766Z,92.70
2018-03-14T04:43:19.282Z,92.80
2018-03-14T04:45:48.774Z,92.60
2018-03-14T04:48:16.326Z,92.40
2018-03-14T04:50:46.583Z,92.10
2018-03-14T04:53:15.076Z,92.00
2018-03-14T04:55:42.624Z,91.90
2018-03-14T04:58:11.111Z,91.60
2018-03-14T05:00:38.662Z,91.50
2018-03-14T05:03:06.223Z,91.70
2018-03-14T05:05:33.746Z,91.80
2018-03-14T05:08:01.309Z,91.40
2018-03-14T05:10:30.530Z,91.30
2018-03-14T05:12:58.067Z,91.30
2018-03-14T05:15:26.363Z,91.40
2018-03-14T05:17:53.905Z,91.10
2018-03-14T05:20:21.421Z,91.00
2018-03-14T05:22:48.976Z,91.40
2018-03-14T05:25:16.500Z,91.20
2018-03-14T05:27:44.967Z,91.30
2018-03-14T05:30:13.276Z,91.70
2018-03-14T05:32:40.790Z,91.70
2018-03-14T05:35:08.383Z,91.90
2018-03-14T05:37:36.654Z,91.90
2018-03-14T05:40:04.223Z,91.90
2018-03-14T05:42:31.769Z,92.10
2018-03-14T05:44:59.318Z,92.10
2018-03-14T05:52:56.353Z,92.20
2018-03-14T05:55:23.907Z,91.60
2018-03-14T05:57:52.378Z,91.30
2018-03-14T06:00:19.914Z,91.10
2018-03-14T06:02:47.472Z,91.20
2018-03-14T06:05:15.057Z,91.10
2018-03-14T06:07:42.602Z,91.30
2018-03-14T06:10:10.134Z,91.10
2018-03-14T06:12:38.450Z,90.90
2018-03-14T06:15:05.981Z,91.20
2018-03-14T06:17:33.544Z,90.90
2018-03-14T06:20:01.069Z,90.70
2018-03-14T06:22:30.831Z,90.70
2018-03-14T06:24:58.407Z,91.20
2018-03-14T06:27:26.902Z,90.80
2018-03-14T06:29:56.410Z,90.80
2018-03-14T06:32:23.956Z,91.20
2018-03-14T06:34:51.503Z,91.50
2018-03-14T06:37:19.029Z,91.50
2018-03-14T06:39:46.574Z,91.70
2018-03-14T06:42:14.863Z,92.10
2018-03-14T06:44:42.407Z,92.00
2018-03-14T06:47:09.970Z,92.80
2018-03-14T06:49:38.264Z,91.70
2018-03-14T06:52:05.823Z,91.70
2018-03-14T06:54:34.295Z,91.80
2018-03-14T06:57:02.854Z,91.90
2018-03-14T06:59:42.255Z,92.30
2018-03-14T07:02:21.658Z,92.90
2018-03-14T07:05:00.850Z,93.10
2018-03-14T07:07:29.172Z,92.90
2018-03-14T07:09:57.670Z,92.90
2018-03-14T07:12:25.226Z,92.90
2018-03-14T07:14:52.761Z,92.60
2018-03-14T07:17:21.274Z,92.10
2018-03-14T07:19:48.908Z,91.50
2018-03-14T07:22:16.475Z,91.20
2018-03-14T07:24:44.983Z,90.60
2018-03-14T07:27:12.518Z,90.30
2018-03-14T07:29:40.076Z,90.50
2018-03-14T07:32:07.606Z,90.90
2018-03-14T07:34:35.190Z,91.30
2018-03-14T07:37:02.722Z,90.90
2018-03-14T07:39:31.218Z,90.30
2018-03-14T07:41:58.778Z,90.40
2018-03-14T07:44:26.350Z,90.40
2018-03-14T07:46:53.914Z,89.70
2018-03-14T07:49:21.456Z,89.90
2018-03-14T07:51:49.015Z,89.00
2018-03-14T07:54:16.538Z,88.80
2018-03-14T07:56:44.105Z,87.50
2018-03-14T07:59:11.704Z,88.60
2018-03-14T08:01:39.234Z,85.90
2018-03-14T08:04:06.799Z,86.10
2018-03-14T08:06:34.336Z,85.70
2018-03-14T08:09:02.693Z,83.20
2018-03-14T08:11:30.210Z,83.20
2018-03-14T08:13:57.835Z,83.00
2018-03-14T08:16:25.533Z,82.00
2018-03-14T08:18:53.079Z,82.70
2018-03-14T08:21:20.601Z,83.30
2018-03-14T08:23:49.862Z,79.70
2018-03-14T08:26:17.413Z,79.80
2018-03-14T08:28:44.947Z,78.00
2018-03-14T08:31:12.505Z,80.20
2018-03-14T08:33:41.766Z,78.80
2018-03-14T08:36:09.327Z,78.70
2018-03-14T08:38:38.600Z,78.40
2018-03-14T08:41:06.161Z,78.00
2018-03-14T08:43:33.685Z,78.30
2018-03-14T08:46:01.207Z,76.40
2018-03-14T08:48:28.768Z,76.50
2018-03-14T08:50:56.302Z,74.80
2018-03-14T08:53:23.848Z,72.10
2018-03-14T08:55:51.362Z,72.80
2018-03-14T08:58:18.907Z,69.40
2018-03-14T09:00:46.435Z,68.90
2018-03-14T09:03:13.978Z,67.70
2018-03-14T09:05:41.494Z,63.00
2018-03-14T09:08:09.015Z,66.30
2018-03-14T09:10:36.577Z,66.70
2018-03-14T09:13:04.090Z,65.80
2018-03-14T09:15:31.639Z,63.70
2018-03-14T09:17:59.168Z,63.40
2018-03-14T09:20:26.722Z,61.50
2018-03-14T09:22:54.258Z,59.30
2018-03-14T09:25:21.805Z,64.20
2018-03-14T09:27:50.290Z,62.20
2018-03-14T09:30:17.819Z,61.40
2018-03-14T09:32:45.367Z,59.60
2018-03-14T09:35:13.655Z,59.10
2018-03-14T09:37:41.202Z,59.10
2018-03-14T09:40:09.669Z,59.20
2018-03-14T09:42:37.220Z,60.40
2018-03-14T09:45:05.669Z,59.00
2018-03-14T09:47:33.230Z,59.40
2018-03-14T09:50:01.711Z,59.60
2018-03-14T09:52:29.235Z,58.50
2018-03-14T09:54:56.801Z,57.90
2018-03-14T09:57:24.342Z,58.30
2018-03-14T09:59:51.888Z,55.70
2018-03-14T10:02:20.184Z,58.20
2018-03-14T10:04:48.501Z,57.10
2018-03-14T10:07:16.022Z,57.10
2018-03-14T10:09:43.575Z,57.40
2018-03-14T10:12:11.880Z,57.60
2018-03-14T10:14:39.409Z,57.60
2018-03-14T10:17:06.970Z,57.50
2018-03-14T10:19:34.495Z,55.70
2018-03-14T10:22:02.815Z,55.20
2018-03-14T10:24:30.342Z,55.10
2018-03-14T10:26:58.659Z,54.30
2018-03-14T10:29:26.178Z,54.30
2018-03-14T10:31:53.742Z,53.40
2018-03-14T10:34:22.106Z,53.70
2018-03-14T10:36:49.655Z,52.00
2018-03-14T10:39:17.198Z,52.90
2018-03-14T10:41:44.732Z,53.50
2018-03-14T10:44:12.276Z,51.90
2018-03-14T10:46:40.569Z,51.40
2018-03-14T10:49:08.224Z,51.50
2018-03-14T10:51:35.748Z,52.10
2018-03-14T10:54:03.302Z,52.10
2018-03-14T10:56:30.838Z,51.10
2018-03-14T10:58:58.357Z,52.30
2018-03-14T11:01:25.906Z,50.60
2018-03-14T11:03:54.190Z,48.60
2018-03-14T11:06:21.738Z,48.50
2018-03-14T11:08:50.118Z,48.30
2018-03-14T11:11:17.699Z,48.40
2018-03-14T11:13:45.210Z,50.80
2018-03-14T11:16:13.535Z,48.20
2018-03-14T11:18:41.074Z,48.20
2018-03-14T11:21:08.623Z,50.40
2018-03-14T11:23:36.946Z,49.50
2018-03-14T11:26:04.481Z,49.50
2018-03-14T11:28:32.029Z,51.50
2018-03-14T11:30:59.561Z,48.70
2018-03-14T11:33:28.846Z,46.10
2018-03-14T11:35:56.423Z,45.60
2018-03-14T11:38:23.983Z,43.90
2018-03-14T11:40:52.363Z,48.40
2018-03-14T11:43:20.666Z,50.50
2018-03-14T11:45:48.226Z,50.40
2018-03-14T11:48:15.748Z,49.10
2018-03-14T11:50:44.290Z,50.50
2018-03-14T11:53:11.826Z,49.50
2018-03-14T11:55:39.404Z,47.80
2018-03-14T11:58:07.906Z,47.40
2018-03-14T12:00:35.457Z,50.40
2018-03-14T12:03:02.981Z,48.40
2018-03-14T12:05:30.523Z,49.60
2018-03-14T12:07:58.073Z,49.40
2018-03-14T12:10:25.598Z,48.80
2018-03-14T12:12:53.150Z,48.90
2018-03-14T12:15:20.671Z,48.00
2018-03-14T12:17:48.252Z,47.80
2018-03-14T12:20:15.830Z,46.30
2018-03-14T12:22:43.386Z,45.30
2018-03-14T12:25:11.919Z,45.00
2018-03-14T12:27:42.175Z,44.40
2018-03-14T12:30:09.707Z,44.40
2018-03-14T12:32:37.991Z,42.90
2018-03-14T12:35:06.108Z,42.90
2018-03-14T12:37:33.675Z,42.80
2018-03-14T12:40:01.257Z,42.90
2018-03-14T12:42:28.780Z,42.70
2018-03-14T12:44:56.341Z,43.50
2018-03-14T12:47:23.867Z,44.20
2018-03-14T12:49:52.374Z,43.10
2018-03-14T12:52:20.110Z,42.90
2018-03-14T12:54:47.634Z,43.70
2018-03-14T12:57:15.216Z,42.70
2018-03-14T12:59:43.531Z,42.20
2018-03-14T13:02:11.138Z,42.20
2018-03-14T13:04:38.678Z,42.30
2018-03-14T13:07:06.242Z,40.60
2018-03-14T13:09:33.980Z,40.70
2018-03-14T13:12:01.523Z,40.30
2018-03-14T13:14:29.050Z,39.90
2018-03-14T13:16:57.624Z,41.40
2018-03-14T13:19:25.138Z,40.50
2018-03-14T13:21:52.659Z,41.10
2018-03-14T13:24:20.206Z,40.50
2018-03-14T13:26:47.734Z,41.20
2018-03-14T13:29:15.282Z,40.40
2018-03-14T13:31:42.798Z,41.80
2018-03-14T13:34:10.371Z,40.50
2018-03-14T13:36:37.894Z,37.90
2018-03-14T13:39:06.189Z,38.00
2018-03-14T13:41:33.751Z,38.10
2018-03-14T13:44:01.270Z,38.60
2018-03-14T13:46:28.912Z,38.20
2018-03-14T13:48:56.510Z,39.50
2018-03-14T13:51:24.086Z,41.30
2018-03-14T13:53:51.622Z,40.30
2018-03-14T13:56:19.945Z,38.00
2018-03-14T13:58:47.479Z,38.00
2018-03-14T14:01:15.959Z,38.40
2018-03-14T14:03:43.512Z,39.40
2018-03-14T14:06:11.062Z,36.40
2018-03-14T14:08:40.566Z,36.30
2018-03-14T14:11:08.861Z,36.60
2018-03-14T14:13:36.427Z,36.60
2018-03-14T14:16:03.962Z,37.10
2018-03-14T14:18:32.281Z,36.80
2018-03-14T14:21:00.758Z,36.80
2018-03-14T14:23:28.287Z,38.20
2018-03-14T14:25:55.846Z,39.10
2018-03-14T14:28:23.371Z,39.80
2018-03-14T14:30:51.686Z,39.40
2018-03-14T14:33:19.229Z,39.40
2018-03-14T14:35:47.547Z,39.40
2018-03-14T14:38:15.070Z,39.40
2018-03-14T14:40:43.388Z,37.50
2018-03-14T14:43:10.910Z,37.50
2018-03-14T14:45:38.439Z,36.20
2018-03-14T14:48:06.024Z,35.50
2018-03-14T14:50:34.303Z,35.40
2018-03-14T14:53:03.815Z,35.30
2018-03-14T14:55:31.347Z,36.10
2018-03-14T14:57:58.899Z,36.70
2018-03-14T15:00:27.214Z,37.70
2018-03-14T15:02:54.763Z,37.70
2018-03-14T15:05:23.254Z,36.70
2018-03-14T15:07:50.774Z,36.70
2018-03-14T15:10:21.034Z,35.10
2018-03-14T15:12:48.562Z,35.10
2018-03-14T15:15:16.924Z,35.80
2018-03-14T15:17:44.434Z,35.80
2018-03-14T15:20:12.061Z,35.90
2018-03-14T15:22:39.526Z,35.20
2018-03-14T15:25:09.030Z,35.20
2018-03-14T15:27:37.328Z,33.90
2018-03-14T15:30:05.744Z,33.80
2018-03-14T15:32:33.302Z,34.30
2018-03-14T15:35:00.822Z,33.20
2018-03-14T15:37:28.367Z,33.10
2018-03-14T15:39:55.894Z,33.20
2018-03-14T15:42:23.451Z,32.90
2018-03-14T15:44:50.977Z,35.10
2018-03-14T15:47:20.486Z,35.70
2018-03-14T15:49:48.009Z,36.00
2018-03-14T15:52:16.414Z,36.50
2018-03-14T15:54:43.991Z,36.50
2018-03-14T15:57:11.537Z,37.20
2018-03-14T15:59:39.092Z,38.50
2018-03-14T16:02:06.622Z,37.70
2018-03-14T16:04:34.935Z,38.50
2018-03-14T16:07:02.464Z,38.40
2018-03-14T16:09:31.009Z,38.90
2018-03-14T16:12:02.550Z,38.50
2018-03-14T16:14:34.570Z,39.60
2018-03-14T16:17:02.129Z,39.60
2018-03-14T16:19:29.650Z,41.20
2018-03-14T16:21:57.196Z,42.10
2018-03-14T16:24:24.921Z,42.60
2018-03-14T16:26:52.473Z,42.70
2018-03-14T16:29:19.985Z,43.00
2018-03-14T16:31:47.554Z,44.00
2018-03-14T16:34:15.088Z,44.70
2018-03-14T16:36:42.630Z,45.80
2018-03-14T16:39:10.146Z,47.20
2018-03-14T16:41:37.677Z,47.90
2018-03-14T16:44:05.235Z,48.70
2018-03-14T16:46:32.762Z,49.40
2018-03-14T16:49:00.322Z,50.30
2018-03-14T16:51:27.849Z,51.50
2018-03-14T16:53:55.431Z,52.20
2018-03-14T16:56:22.955Z,52.40
2018-03-14T16:58:51.272Z,53.70
2018-03-14T17:01:18.793Z,53.70
2018-03-14T17:03:46.318Z,54.30
2018-03-14T17:06:13.866Z,54.60
2018-03-14T17:08:41.410Z,55.10
2018-03-14T17:11:08.963Z,56.10
2018-03-14T17:13:36.487Z,57.10
2018-03-14T17:16:05.043Z,57.70
2018-03-14T17:18:33.539Z,58.60
2018-03-14T17:21:01.111Z,59.20
2018-03-14T17:23:28.634Z,59.80
2018-03-14T17:25:56.159Z,61.50
2018-03-14T17:28:23.738Z,62.60
2018-03-14T17:30:51.263Z,64.30
2018-03-14T17:33:18.800Z,63.90
2018-03-14T17:35:47.090Z,64.90
2018-03-14T17:38:14.626Z,64.90
2018-03-14T17:40:42.162Z,66.10
2018-03-14T17:43:09.730Z,66.00
2018-03-14T17:45:41.252Z,67.10
2018-03-14T17:48:16.513Z,65.50
2018-03-14T17:50:45.011Z,65.40
2018-03-14T17:53:12.555Z,65.70
2018-03-14T17:55:40.078Z,66.20
2018-03-14T17:58:08.557Z,66.30
2018-03-14T18:00:36.118Z,66.90
2018-03-14T18:03:03.641Z,67.20
2018-03-14T18:05:31.964Z,68.50
2018-03-14T18:08:00.435Z,68.50
2018-03-14T18:10:27.994Z,69.50
2018-03-14T18:12:55.514Z,70.00
2018-03-14T18:15:23.799Z,69.30
2018-03-14T18:17:52.227Z,69.10
2018-03-14T18:20:19.758Z,68.90
2018-03-14T18:22:47.315Z,69.60
2018-03-14T18:25:14.834Z,69.60
2018-03-14T18:27:42.387Z,69.50
2018-03-14T18:30:09.908Z,70.00
2018-03-14T18:32:37.450Z,69.90
2018-03-14T18:35:04.967Z,69.80
2018-03-14T18:37:32.511Z,69.60
2018-03-14T18:40:00.082Z,69.30
2018-03-14T18:42:27.607Z,69.00
2018-03-14T18:44:55.157Z,69.00
2018-03-14T18:47:22.684Z,69.50
2018-03-14T18:49:50.231Z,68.80
2018-03-14T18:52:19.493Z,68.80
2018-03-14T18:54:47.013Z,68.70
2018-03-14T18:57:14.671Z,69.20
2018-03-14T18:59:42.206Z,69.70
2018-03-14T19:02:10.566Z,70.70
2018-03-14T19:04:39.092Z,70.70
2018-03-14T19:07:06.687Z,70.40
2018-03-14T19:09:34.536Z,70.90
2018-03-14T19:12:02.434Z,70.60
2018-03-14T19:14:30.524Z,71.10
2018-03-14T19:16:58.444Z,71.20
2018-03-14T19:19:26.003Z,71.40
2018-03-14T19:21:53.547Z,72.20
2018-03-14T19:24:21.662Z,72.00
2018-03-14T19:26:49.201Z,72.60
2018-03-14T19:29:16.864Z,71.80
2018-03-14T19:31:44.386Z,71.50
2018-03-14T19:34:11.926Z,71.50
2018-03-14T19:36:41.977Z,72.20
2018-03-14T19:39:09.494Z,72.20
2018-03-14T19:41:37.807Z,73.10
2018-03-14T19:44:05.331Z,73.10
2018-03-14T19:46:32.886Z,73.20
2018-03-14T19:49:00.415Z,72.60
2018-03-14T19:51:27.959Z,72.70
2018-03-14T19:53:55.487Z,72.20
2018-03-14T19:56:23.039Z,71.70
2018-03-14T19:58:50.566Z,70.90
2018-03-14T20:01:18.107Z,71.10
2018-03-14T20:03:46.614Z,69.60
2018-03-14T20:06:14.130Z,68.60
2018-03-14T20:08:41.676Z,69.70
2018-03-14T20:11:09.206Z,70.70
2018-03-14T20:13:36.725Z,71.00
2018-03-14T20:16:04.275Z,72.60
2018-03-14T20:18:31.785Z,72.80
2018-03-14T20:21:00.115Z,73.70
2018-03-14T20:23:27.648Z,73.70
2018-03-14T20:25:55.203Z,74.20
2018-03-14T20:28:22.718Z,74.10
2018-03-14T20:30:50.229Z,74.40
2018-03-14T20:33:17.833Z,74.50
2018-03-14T20:35:45.664Z,74.50
2018-03-14T20:38:13.451Z,75.00
2018-03-14T20:40:41.824Z,74.90
2018-03-14T20:43:09.775Z,74.80
2018-03-14T20:45:37.290Z,74.10
2018-03-14T20:48:04.823Z,74.30
2018-03-14T20:50:33.195Z,75.00
2018-03-14T20:53:00.715Z,74.90
2018-03-14T20:55:28.266Z,75.20
2018-03-14T20:57:55.813Z,75.20
2018-03-14T21:00:23.373Z,74.90
2018-03-14T21:02:50.963Z,74.60
2018-03-14T21:05:18.692Z,74.60
2018-03-14T21:07:46.517Z,74.50
2018-03-14T21:10:14.049Z,74.90
2018-03-14T21:12:41.607Z,74.50
2018-03-14T21:15:09.136Z,74.10
2018-03-14T21:17:36.694Z,74.20
2018-03-14T21:20:04.213Z,74.10
2018-03-14T21:22:31.732Z,73.90
2018-03-14T21:24:59.292Z,74.40
2018-03-14T21:27:26.820Z,73.70
2018-03-14T21:29:54.359Z,73.30
2018-03-14T21:32:21.890Z,73.90
2018-03-14T21:34:49.438Z,73.80
2018-03-14T21:37:16.961Z,74.20
2018-03-14T21:39:46.462Z,73.60
2018-03-14T21:42:13.986Z,73.40
2018-03-14T21:44:41.504Z,73.40
2018-03-14T21:47:10.015Z,73.50
2018-03-14T21:49:37.720Z,73.50
2018-03-14T21:52:05.266Z,72.20
2018-03-14T21:54:33.165Z,71.50
2018-03-14T21:57:12.523Z,69.40
2018-03-14T21:59:40.046Z,68.10
2018-03-14T22:02:08.652Z,68.90
2018-03-14T22:04:36.211Z,69.30
2018-03-14T22:07:03.762Z,69.50
2018-03-14T22:09:31.412Z,70.10
2018-03-14T22:11:59.276Z,69.80
2018-03-14T22:14:26.806Z,70.10
2018-03-14T22:16:54.338Z,70.60
2018-03-14T22:19:21.877Z,71.30
2018-03-14T22:21:49.658Z,71.40
2018-03-14T22:24:17.186Z,72.30
2018-03-14T22:26:44.762Z,71.90
2018-03-14T22:29:12.341Z,72.20
2018-03-14T22:31:39.879Z,72.60
2018-03-14T22:34:07.402Z,72.40
2018-03-14T22:36:34.964Z,72.80
2018-03-14T22:39:02.486Z,72.30
2018-03-14T22:41:30.014Z,71.70
2018-03-14T22:43:57.555Z,71.20
2018-03-14T22:46:25.083Z,71.10
2018-03-14T22:48:52.634Z,70.90
2018-03-14T22:51:20.166Z,70.30
2018-03-14T22:53:47.722Z,68.80
2018-03-14T22:56:16.204Z,66.60
2018-03-14T22:58:43.732Z,65.70
2018-03-14T23:01:11.289Z,65.40
2018-03-14T23:03:39.774Z,65.20
2018-03-14T23:06:07.314Z,64.80
2018-03-14T23:08:34.837Z,64.20
2018-03-14T23:11:02.391Z,63.60
2018-03-14T23:13:29.935Z,63.60
2018-03-14T23:15:57.965Z,63.70
2018-03-14T23:18:27.502Z,65.10
2018-03-14T23:20:56.798Z,65.10
2018-03-14T23:23:25.114Z,65.00
2018-03-14T23:25:55.398Z,67.00
2018-03-14T23:28:25.365Z,66.60
2018-03-14T23:30:54.780Z,67.30
2018-03-14T23:33:23.204Z,68.00
2018-03-14T23:35:50.873Z,68.90
2018-03-14T23:38:19.159Z,69.40
2018-03-14T23:40:49.692Z,69.80
2018-03-14T23:43:17.852Z,69.60
2018-03-14T23:45:46.312Z,69.90
2018-03-14T23:48:13.929Z,69.90
2018-03-14T23:50:42.425Z,71.20
2018-03-14T23:53:11.054Z,71.10
2018-03-14T23:55:38.993Z,70.60
2018-03-14T23:58:06.538Z,70.50
